createdAt,value
2019-01-14T00:07:12.268Z,4
2019-01-14T00:17:19.334Z,2
2019-01-14T00:27:26.689Z,3
2019-01-14T00:37:34.242Z,2
2019-01-14T00:47:42.643Z,1
2019-01-14T00:57:48.565Z,2
2019-01-14T01:07:58.880Z,2
2019-01-14T01:18:05.302Z,5
2019-01-14T01:28:13.714Z,1
2019-01-14T01:38:20.769Z,1
2019-01-14T01:48:27.946Z,1
2019-01-14T01:58:36.950Z,2
2019-01-14T02:08:43.768Z,1
2019-01-14T02:18:49.538Z,2
2019-01-14T02:28:56.235Z,1
2019-01-14T02:39:03.934Z,2
2019-01-14T02:49:12.971Z,3
2019-01-14T02:59:19.974Z,2
2019-01-14T03:07:36.706Z,3
2019-01-14T03:17:42.986Z,3
2019-01-14T03:27:49.273Z,3
2019-01-14T03:37:58.044Z,3
2019-01-14T03:48:03.993Z,4
2019-01-14T03:58:11.680Z,3
2019-01-14T04:08:20.778Z,5
2019-01-14T04:18:28.011Z,3
2019-01-14T04:28:35.379Z,2
2019-01-14T04:38:42.706Z,4
2019-01-14T04:48:49.097Z,5
2019-01-14T04:58:56.618Z,4
2019-01-14T05:09:04.006Z,6
2019-01-14T05:19:12.092Z,3
2019-01-14T05:29:20.691Z,4
2019-01-14T05:39:28.348Z,3
2019-01-14T05:49:35.117Z,4
2019-01-14T05:59:42.858Z,2
2019-01-14T06:09:51.796Z,4
2019-01-14T06:19:58.392Z,4
2019-01-14T06:30:03.907Z,5
2019-01-14T06:40:12.892Z,4
2019-01-14T06:50:19.424Z,7
2019-01-14T07:00:27.551Z,3
2019-01-14T07:10:36.410Z,5
2019-01-14T07:20:43.408Z,7
2019-01-14T07:29:04.313Z,6
2019-01-14T07:39:22.244Z,5
2019-01-14T07:49:28.501Z,5
2019-01-14T07:59:05.493Z,7
2019-01-14T08:09:09.294Z,6
2019-01-14T08:19:15.343Z,5
2019-01-14T08:29:24.658Z,4
2019-01-14T08:31:56.501Z,6
2019-01-14T08:34:03.795Z,6
2019-01-14T08:44:12.448Z,6
2019-01-14T08:54:26.884Z,5
2019-01-14T09:04:34.222Z,5
2019-01-14T09:11:22.443Z,5
2019-01-14T09:15:48.072Z,6
2019-01-14T09:21:01.399Z,5
2019-01-14T09:31:09.424Z,4
2019-01-14T09:41:17.260Z,4
2019-01-14T09:50:37.740Z,4
2019-01-14T10:00:46.235Z,4
2019-01-14T10:07:05.050Z,5
2019-01-14T10:09:18.537Z,5
2019-01-14T10:12:34.807Z,6
2019-01-14T10:22:41.176Z,5
2019-01-14T10:31:42.514Z,5
2019-01-14T10:41:47.419Z,5
2019-01-14T10:45:30.030Z,3
2019-01-14T10:50:44.667Z,6
2019-01-14T11:00:54.124Z,5
2019-01-14T11:08:10.325Z,5
2019-01-14T11:18:16.130Z,6
2019-01-14T11:22:38.664Z,5
2019-01-14T11:32:41.596Z,6
2019-01-14T11:42:50.049Z,4
2019-01-14T11:52:57.465Z,4
2019-01-14T12:03:13.182Z,5
2019-01-14T12:12:34.739Z,5
2019-01-14T12:22:41.600Z,5
2019-01-14T12:32:49.750Z,6
2019-01-14T12:43:02.435Z,6
2019-01-14T12:47:18.394Z,7
2019-01-14T12:50:17.079Z,6
2019-01-14T13:00:22.107Z,3
2019-01-14T13:03:37.662Z,5
2019-01-14T13:13:44.934Z,4
2019-01-14T13:23:53.958Z,3
2019-01-14T13:26:11.248Z,5
2019-01-14T13:28:26.060Z,4
2019-01-14T13:38:29.285Z,7
2019-01-14T13:48:47.150Z,7
2019-01-14T13:58:55.362Z,6
2019-01-14T14:02:15.632Z,5
2019-01-14T14:09:01.537Z,4
2019-01-14T14:12:52.623Z,5
2019-01-14T14:23:01.469Z,3
2019-01-14T14:24:16.792Z,4
2019-01-14T14:26:31.071Z,4
2019-01-14T14:28:45.471Z,4
2019-01-14T14:30:24.576Z,4
2019-01-14T14:38:39.150Z,5
2019-01-14T14:48:45.409Z,5
2019-01-14T14:58:53.087Z,3
2019-01-14T15:09:19.516Z,4
2019-01-14T15:12:42.547Z,4
2019-01-14T15:22:48.399Z,4
2019-01-14T15:32:56.159Z,4
2019-01-14T15:43:06.181Z,5
2019-01-14T15:53:12.755Z,5
2019-01-14T16:03:19.038Z,7
2019-01-14T16:13:26.041Z,3
2019-01-14T16:23:33.817Z,4
2019-01-14T16:33:42.259Z,4
2019-01-14T16:43:06.053Z,4
2019-01-14T16:53:13.207Z,5
2019-01-14T17:01:35.889Z,4
2019-01-14T17:11:41.649Z,4
2019-01-14T17:21:47.121Z,6
2019-01-14T17:31:55.899Z,4
2019-01-14T17:42:06.060Z,5
2019-01-14T17:49:27.003Z,5
2019-01-14T17:50:40.737Z,5
2019-01-14T18:00:45.661Z,7
2019-01-14T18:10:52.316Z,4
2019-01-14T18:21:47.148Z,4
2019-01-14T18:31:51.545Z,5
2019-01-14T18:39:26.329Z,8
2019-01-14T18:49:31.865Z,6
2019-01-14T18:59:38.744Z,7
2019-01-14T19:09:48.469Z,6
2019-01-14T19:19:54.350Z,6
2019-01-14T19:30:01.393Z,7
2019-01-14T19:33:16.607Z,7
2019-01-14T19:43:24.038Z,7
2019-01-14T19:53:32.891Z,7
2019-01-14T20:03:38.817Z,7
2019-01-14T20:13:52.238Z,7
2019-01-14T20:24:02.416Z,8
2019-01-14T20:34:07.904Z,7
2019-01-14T20:44:15.324Z,7
2019-01-14T20:54:23.904Z,7
2019-01-14T21:04:29.752Z,10
2019-01-14T21:14:37.051Z,9
2019-01-14T21:24:42.926Z,7
2019-01-14T21:34:53.048Z,6
2019-01-14T21:42:11.131Z,6
2019-01-14T21:52:15.333Z,5
2019-01-14T22:02:22.074Z,5
2019-01-14T22:12:31.002Z,5
2019-01-14T22:22:38.746Z,6
2019-01-14T22:32:46.600Z,5
2019-01-14T22:42:55.010Z,6
2019-01-14T22:53:03.865Z,8
2019-01-14T23:03:10.866Z,6
2019-01-14T23:12:28.790Z,4
2019-01-14T23:22:37.201Z,5
2019-01-14T23:32:45.093Z,5
2019-01-14T23:42:52.078Z,4
2019-01-14T23:52:59.533Z,5
2019-01-14T23:55:13.097Z,4
